METAR Data
IDs: Format: Raw Decoded Include TAF

Data at: 0002 UTC 30 May 2020

KERV 292355Z AUTO 04007KT 10SM CLR 28/14 A3013 RMK AO2 T02750137 10288 20261
KERV 292335Z AUTO 04006KT 10SM CLR 28/14 A3012 RMK AO2 T02750140
KERV 292315Z AUTO 04008KT 10SM CLR 28/14 A3013 RMK AO2 T02750139
KERV 292255Z AUTO 05006KT 10SM CLR 28/12 A3014 RMK AO2 T02760123
KERV 292235Z AUTO 05006G16KT 10SM CLR 28/13 A3014 RMK AO2 T02780130
KERV 292215Z AUTO 05010KT 020V080 10SM CLR 28/14 A3014 RMK AO2 T02820135
KERV 292155Z AUTO 05010G17KT 10SM CLR 28/14 A3014 RMK AO2 T02820137
KERV 292135Z AUTO 03011KT 10SM CLR 28/13 A3015 RMK AO2 T02820133
KERV 292115Z AUTO 03006G15KT 10SM SCT060 28/15 A3015 RMK AO2 T02800154
KERV 292055Z AUTO 03009G14KT 350V080 10SM SCT065 28/15 A3016 RMK AO2 T02800150
KERV 292035Z AUTO 02010G20KT 340V070 10SM CLR 28/15 A3016 RMK AO2 T02820147
KERV 292015Z AUTO 07012G16KT 7SM CLR 29/14 A3017 RMK AO2 T02850138

KT82 292355Z AUTO 04007KT 10SM CLR 27/11 A3013 RMK AO2 T02660111 10285 20260
KT82 292335Z AUTO 05010G14KT 10SM CLR 27/11 A3013 RMK AO2 T02700105
KT82 292315Z AUTO 06004KT 10SM CLR 27/10 A3013 RMK AO2 T02680102
KT82 292255Z AUTO 05007KT 10SM CLR 27/13 A3014 RMK AO2 T02690126
KT82 292235Z AUTO 04007KT 10SM CLR 27/12 A3014 RMK AO2 T02730115
KT82 292215Z AUTO 05005KT 10SM CLR 28/12 A3014 RMK AO2 T02770121
KT82 292155Z AUTO 05006KT 10SM CLR 28/12 A3015 RMK AO2 T02800118
KT82 292135Z AUTO 04006KT 10SM CLR 28/12 A3016 RMK AO2 T02770120
KT82 292115Z AUTO 03009G15KT 10SM CLR 28/12 A3016 RMK AO2 T02800122
KT82 292055Z AUTO 05010G15KT 10SM CLR 28/12 A3017 RMK AO2 T02820117
KT82 292035Z AUTO 04013G17KT 10SM CLR 28/13 A3017 RMK AO2 T02810133
KT82 292015Z AUTO 08010G16KT 10SM CLR 28/12 A3018 RMK AO2 T02800123

KJCT 292351Z AUTO 08011KT 10SM CLR 29/14 A3014 RMK AO2 SLP172 T02890144 10300 20267 56013
KJCT 292251Z AUTO 09010KT 10SM CLR 29/13 A3015 RMK AO2 SLP176 T02890133
KJCT 292151Z AUTO 07009G17KT 10SM FEW070 29/14 A3016 RMK AO2 SLP179 T02890144
KJCT 292051Z AUTO 11007KT 10SM CLR 29/16 A3017 RMK AO2 SLP184 T02890156 56010

K5C1 292355Z AUTO 04007KT 10SM CLR 27/12 A3012 RMK AO1
K5C1 292335Z AUTO 05007KT 10SM CLR 27/12 A3011 RMK AO1
K5C1 292315Z AUTO 06009KT 10SM CLR 27/12 A3011 RMK AO1
K5C1 292255Z AUTO 06010KT 10SM CLR 28/12 A3012 RMK AO1
K5C1 292235Z AUTO 06010G15KT 10SM CLR 28/11 A3012 RMK AO1
K5C1 292215Z AUTO 06009KT 10SM CLR 28/12 A3012 RMK AO1
K5C1 292155Z AUTO 07011G16KT 10SM CLR 28/11 A3013 RMK AO1
K5C1 292135Z AUTO 04008KT 10SM CLR 28/12 A3013 RMK AO1
K5C1 292115Z AUTO 03009G14KT 10SM CLR 28/12 A3014 RMK AO1
K5C1 292055Z AUTO 08011G17KT 060V130 10SM CLR 28/13 A3014 RMK AO1
K5C1 292035Z AUTO 05009G15KT 10SM SCT065 28/13 A3015 RMK AO1
K5C1 292015Z AUTO 04007KT 10SM CLR 27/14 A3015 RMK AO1

KHDO 292351Z AUTO 10SM CLR 30/12 A3007 RMK AO2 SLP168 T03000122 10317 20289 56010
KHDO 292251Z AUTO 10SM FEW070 29/13 A3007 RMK AO2 SLP169 T02940133
KHDO 292151Z AUTO 10SM SCT060 31/14 A3009 RMK AO2 PK WND 03028/2128 SLP174 T03060144
KHDO 292051Z AUTO 05006KT 10SM FEW060 31/15 A3010 RMK AO2 SLP178 T03060150 58004

KUVA 292355Z AUTO 04008KT 10SM 29/15 A3009 RMK AO2 T02850147 10308 20285
KUVA 292335Z AUTO 06010KT 10SM 29/14 A3009 RMK AO2 T02900143
KUVA 292315Z AUTO 06009G17KT 10SM 30/15 A3009 RMK AO2 T03030147
KUVA 292255Z AUTO 06009G14KT 10SM 30/16 A3009 RMK AO2 T03020156
KUVA 292235Z AUTO 04008G16KT 10SM 30/15 A3009 RMK AO2 T02970148
KUVA 292215Z AUTO 06006KT 10SM 30/16 A3010 RMK AO2 T03010157
KUVA 292155Z AUTO 04008KT 10SM 30/15 A3011 RMK AO2 T03030151
KUVA 292135Z AUTO 07008KT 10SM 30/15 A3011 RMK AO2 T03030154
KUVA 292115Z AUTO 03010G15KT 10SM 31/16 A3011 RMK AO2 T03060159
KUVA 292055Z AUTO 02008KT 10SM 30/15 A3012 RMK AO2 T02990150
KUVA 292035Z AUTO 05007G17KT 10SM 30/16 A3013 RMK AO2 T03040161
KUVA 292015Z AUTO 05006KT 10SM 30/17 A3013 RMK AO2 T02980165

KSAT 292351Z 06009KT 10SM FEW070 BKN250 29/13 A3006 RMK AO2 SLP163 T02940133 10317 20289 56010 $
KSAT 292251Z 06007KT 10SM FEW070 BKN250 30/13 A3007 RMK AO2 SLP166 T03000128 $
KSAT 292151Z 06009G18KT 10SM SCT065 BKN250 31/14 A3008 RMK AO2 SLP169 T03060144 $
KSAT 292051Z 03010KT 10SM SCT060 BKN250 31/16 A3009 RMK AO2 SLP172 T03110156 58003 $

KSSF 292353Z 07007KT 10SM CLR 28/15 A3004 RMK AO2 SLP162 T02780150 10306 20278 56007 $
KSSF 292253Z 06010KT 10SM CLR 28/15 A3004 RMK AO2 SLP163 T02830150 $
KSSF 292153Z 06010G18KT 10SM CLR 30/14 A3005 RMK AO2 SLP164 T03000144 $
KSSF 292053Z 04008KT 10SM FEW060 30/17 A3006 RMK AO2 SLP167 T03000172 58004 $